Time;durP1;ratioP1;P1;durP2;ratioP2;P2;SDS_P1;SDS_P2;PMS_P1;PMS_P2;Temp;Humidity;BMP_temperature;BMP_pressure;BME280_temperature;BME280_humidity;BME280_pressure;Samples;Min_cycle;Max_cycle;Signal;HPM_P1;HPM_P2
2022/11/11 00:02:26;;;;;;;460.75;415.73;;;;;;;4.89;100.00;99421.09;7383118;19;20007;-48
2022/11/11 00:05:22;;;;;;;434.08;389.77;;;;;;;4.57;100.00;99439.06;7387512;19;20015;-49
2022/11/11 00:08:15;;;;;;;451.83;407.75;;;;;;;4.77;100.00;99435.25;7388255;19;20066;-50
2022/11/11 00:11:09;;;;;;;446.63;402.52;;;;;;;4.62;100.00;99442.44;7387064;19;20007;-50
2022/11/11 00:14:01;;;;;;;426.27;381.77;;;;;;;4.91;100.00;99442.81;7384064;19;20011;-53
2022/11/11 00:26:21;;;;;;;424.88;382.10;;;;;;;4.55;100.00;99462.53;7382154;19;20462;-50
2022/11/11 00:29:13;;;;;;;430.13;385.63;;;;;;;4.78;100.00;99463.00;7380278;19;20010;-48
2022/11/11 00:41:33;;;;;;;436.48;391.83;;;;;;;4.49;100.00;99461.75;7384754;19;20036;-53
2022/11/11 00:44:24;;;;;;;440.27;396.00;;;;;;;4.63;100.00;99468.47;7380197;19;20047;-48
2022/11/11 00:53:34;;;;;;;442.80;398.88;;;;;;;5.07;100.00;99452.94;7383554;19;20021;-49
2022/11/11 00:56:27;;;;;;;443.08;398.88;;;;;;;5.14;100.00;99438.00;7384493;19;20009;-51
2022/11/11 00:59:18;;;;;;;440.30;395.55;;;;;;;5.11;100.00;99425.03;7379218;19;20022;-55
2022/11/11 01:02:13;;;;;;;446.42;400.83;;;;;;;5.20;100.00;99434.44;7375531;19;20015;-47
2022/11/11 01:05:05;;;;;;;449.00;403.75;;;;;;;5.30;100.00;99425.56;7382790;19;20463;-49
2022/11/11 01:07:58;;;;;;;457.20;412.27;;;;;;;5.42;100.00;99426.16;7383046;19;20053;-48
2022/11/11 01:10:53;;;;;;;457.52;411.65;;;;;;;5.23;100.00;99417.00;7377610;19;20589;-50
2022/11/11 01:13:46;;;;;;;455.67;410.92;;;;;;;5.47;100.00;99415.63;7384462;19;20019;-49
2022/11/11 01:16:38;;;;;;;442.60;398.70;;;;;;;5.37;100.00;99419.31;7388147;19;20015;-48
2022/11/11 01:19:30;;;;;;;462.98;416.85;;;;;;;5.04;100.00;99426.91;7381845;19;20272;-50
2022/11/11 01:22:22;;;;;;;448.48;403.52;;;;;;;4.82;100.00;99424.72;7382177;19;20497;-57
2022/11/11 01:25:14;;;;;;;447.60;403.40;;;;;;;5.13;100.00;99437.16;7386941;19;20015;-50
2022/11/11 01:28:10;;;;;;;454.35;409.27;;;;;;;5.12;100.00;99442.41;7383411;19;20095;-51
2022/11/11 01:31:07;;;;;;;454.08;408.15;;;;;;;5.12;100.00;99446.75;7381275;19;20010;-51
2022/11/11 01:33:59;;;;;;;454.73;409.50;;;;;;;5.46;100.00;99427.81;7386129;19;20014;-49
2022/11/11 01:36:51;;;;;;;460.65;415.85;;;;;;;5.60;100.00;99424.91;7383764;19;20362;-49
2022/11/11 01:39:43;;;;;;;454.15;407.85;;;;;;;5.74;100.00;99433.31;7380791;19;20018;-51
2022/11/11 01:42:52;;;;;;;430.25;386.58;;;;;;;5.83;100.00;99430.50;7383665;19;20099;-48
2022/11/11 01:46:00;;;;;;;422.38;378.83;;;;;;;5.68;100.00;99433.44;7383587;19;20017;-51
2022/11/11 01:52:08;;;;;;;426.85;383.27;;;;;;;5.26;100.00;99424.72;7388916;19;20030;-48
2022/11/11 01:55:05;;;;;;;457.52;413.23;;;;;;;5.49;100.00;99429.50;7388013;19;20021;-52
2022/11/11 01:58:06;;;;;;;456.23;411.15;;;;;;;5.75;100.00;99435.03;7389618;19;20017;-48
2022/11/11 02:01:02;;;;;;;453.10;407.65;;;;;;;5.76;100.00;99437.59;7385000;19;20007;-53
2022/11/11 02:07:10;;;;;;;454.80;409.33;;;;;;;5.41;100.00;99432.25;7392478;19;20017;-55
2022/11/11 02:10:04;;;;;;;468.23;422.10;;;;;;;5.45;100.00;99444.34;7387369;19;20010;-51
2022/11/11 02:16:04;;;;;;;467.38;420.50;;;;;;;5.77;100.00;99444.53;7385070;19;20010;-48
2022/11/11 02:18:58;;;;;;;459.27;414.42;;;;;;;5.84;100.00;99442.66;7389738;19;20034;-49
2022/11/11 02:22:02;;;;;;;458.65;413.50;;;;;;;5.76;100.00;99442.81;7389981;19;20014;-47
2022/11/11 02:25:02;;;;;;;451.80;407.45;;;;;;;5.45;100.00;99433.06;7393205;19;20011;-51
2022/11/11 02:28:03;;;;;;;459.10;413.67;;;;;;;5.21;100.00;99444.84;7391995;19;20010;-48
2022/11/11 02:30:55;;;;;;;459.98;414.27;;;;;;;5.53;100.00;99442.47;7383723;19;20033;-54
2022/11/11 02:33:48;;;;;;;455.25;409.90;;;;;;;5.46;100.00;99443.47;7390493;19;20006;-50
2022/11/11 02:36:41;;;;;;;454.65;409.88;;;;;;;5.58;100.00;99450.16;7389478;19;20474;-52
2022/11/11 02:39:33;;;;;;;472.20;425.63;;;;;;;5.54;100.00;99452.00;7385280;19;20470;-48
2022/11/11 02:42:30;;;;;;;446.48;402.33;;;;;;;5.83;100.00;99449.63;7387459;19;20011;-49
2022/11/11 02:45:22;;;;;;;464.52;419.20;;;;;;;5.50;100.00;99439.03;7389166;19;20006;-50
2022/11/11 02:48:15;;;;;;;456.75;411.10;;;;;;;5.67;100.00;99450.84;7385958;19;21037;-51
2022/11/11 02:51:07;;;;;;;442.48;397.98;;;;;;;5.29;100.00;99431.66;7389212;19;20078;-55
2022/11/11 02:54:00;;;;;;;437.88;393.83;;;;;;;5.83;100.00;99441.81;7388290;19;20018;-49
2022/11/11 02:59:59;;;;;;;432.58;388.02;;;;;;;5.45;100.00;99439.13;7385628;19;20014;-49
2022/11/11 03:02:51;;;;;;;411.42;369.73;;;;;;;5.67;100.00;99440.41;7385769;19;20011;-49
2022/11/11 03:05:43;;;;;;;423.65;380.95;;;;;;;5.52;100.00;99426.84;7391531;19;20014;-47
2022/11/11 03:08:35;;;;;;;464.48;419.35;;;;;;;5.80;100.00;99431.44;7387259;19;20010;-49
2022/11/11 03:11:29;;;;;;;450.67;406.92;;;;;;;5.62;100.00;99428.34;7390429;19;20473;-59
2022/11/11 03:14:21;;;;;;;437.05;393.40;;;;;;;5.60;100.00;99433.63;7387600;19;20026;-50
2022/11/11 03:23:25;;;;;;;;;;;;;;;5.42;100.00;99439.22;7383885;19;20013;-50
2022/11/11 03:26:15;;;;;;;444.77;400.55;;;;;;;5.49;100.00;99448.63;7387582;19;19919;-51
2022/11/11 03:29:07;;;;;;;455.30;411.27;;;;;;;5.13;100.00;99462.38;7388873;19;20086;-50
2022/11/11 03:31:59;;;;;;;462.08;416.15;;;;;;;5.44;100.00;99466.09;7382954;19;20022;-47
2022/11/11 03:34:54;;;;;;;442.52;398.90;;;;;;;4.87;100.00;99475.88;7387300;19;20014;-52
2022/11/11 03:40:53;;;;;;;434.38;390.92;;;;;;;5.30;100.00;99475.09;7387841;19;20014;-49
2022/11/11 03:43:46;;;;;;;451.90;406.67;;;;;;;5.38;100.00;99463.63;7382713;19;20046;-52
2022/11/11 03:46:38;;;;;;;450.05;405.73;;;;;;;5.20;100.00;99452.69;7384900;19;20366;-51
2022/11/11 03:49:30;;;;;;;449.80;405.25;;;;;;;5.18;100.00;99444.06;7386259;19;20015;-48
2022/11/11 03:52:28;;;;;;;464.13;418.15;;;;;;;5.22;100.00;99443.09;7383809;19;21112;-48
2022/11/11 03:55:21;;;;;;;442.05;397.63;;;;;;;5.46;100.00;99427.81;7383278;19;20021;-57
2022/11/11 03:58:13;;;;;;;439.40;395.70;;;;;;;5.03;100.00;99429.53;7387447;19;20015;-50
2022/11/11 04:10:21;;;;;;;460.20;415.63;;;;;;;4.84;100.00;99439.47;7384297;19;20073;-51
2022/11/11 04:10:29;;;;;;;456.48;410.38;;;;;;;4.99;100.00;99438.31;7375461;19;20490;-50
2022/11/11 04:16:25;;;;;;;442.67;398.15;;;;;;;4.75;100.00;99459.56;7384374;19;20017;-51
2022/11/11 04:22:22;;;;;;;421.65;378.42;;;;;;;5.01;100.00;99454.78;7383382;19;20031;-49
2022/11/11 04:31:26;;;;;;;477.08;429.83;;;;;;;5.36;100.00;99454.09;7383768;19;20010;-49
2022/11/11 04:34:15;;;;;;;467.33;419.27;;;;;;;5.08;100.00;99466.81;7381332;19;20459;-47
2022/11/11 04:37:07;;;;;;;479.73;431.00;;;;;;;5.12;100.00;99465.00;7376647;19;20011;-49
2022/11/11 04:43:07;;;;;;;469.15;421.15;;;;;;;5.22;100.00;99477.00;7383668;19;20027;-49
2022/11/11 04:45:56;;;;;;;476.85;428.50;;;;;;;5.18;100.00;99480.56;7381646;19;20355;-51
2022/11/11 04:48:48;;;;;;;485.17;435.45;;;;;;;5.20;100.00;99479.63;7381178;19;20010;-57
2022/11/11 04:57:52;;;;;;;490.88;443.13;;;;;;;5.07;100.00;99503.34;7385140;19;20510;-50
2022/11/11 05:00:48;;;;;;;509.92;459.67;;;;;;;5.11;100.00;99505.03;7379907;19;20007;-49
2022/11/11 05:03:40;;;;;;;486.13;437.38;;;;;;;4.93;100.00;99495.75;7380605;19;20006;-58
2022/11/11 05:09:37;;;;;;;474.73;427.42;;;;;;;4.94;100.00;99497.50;7380548;19;20006;-49
2022/11/11 05:12:29;;;;;;;504.23;454.55;;;;;;;4.69;100.00;99507.44;7374498;19;20022;-49
2022/11/11 05:21:38;;;;;;;499.52;448.98;;;;;;;4.75;100.00;99514.31;7379578;19;20018;-49
2022/11/11 05:27:34;;;;;;;463.58;415.40;;;;;;;4.83;100.00;99520.28;7385428;19;20599;-49
2022/11/11 05:30:28;;;;;;;470.73;422.33;;;;;;;4.87;100.00;99517.56;7384523;19;20042;-59
2022/11/11 05:33:20;;;;;;;466.10;417.75;;;;;;;5.08;100.00;99513.72;7384805;19;20378;-49
2022/11/11 05:36:15;;;;;;;442.58;396.05;;;;;;;5.07;100.00;99517.22;7385794;19;20086;-52
2022/11/11 05:39:07;;;;;;;460.83;412.90;;;;;;;5.01;100.00;99517.38;7373294;19;20015;-53
2022/11/11 05:41:59;;;;;;;404.58;361.23;;;;;;;5.10;100.00;99522.41;7386051;19;20600;-49
2022/11/11 05:44:52;;;;;;;516.30;468.30;;;;;;;5.12;100.00;99522.38;7387014;19;20011;-54
2022/11/11 05:47:43;;;;;;;510.65;461.75;;;;;;;5.16;100.00;99524.03;7381799;19;20018;-47
2022/11/11 05:50:40;;;;;;;493.45;445.75;;;;;;;5.06;100.00;99523.34;7385870;19;20015;-52
2022/11/11 05:53:35;;;;;;;482.20;434.73;;;;;;;5.11;100.00;99518.06;7387662;19;20042;-55
2022/11/11 05:56:28;;;;;;;499.55;451.40;;;;;;;4.86;100.00;99520.19;7389644;19;20014;-51
2022/11/11 05:59:20;;;;;;;487.50;439.42;;;;;;;5.03;100.00;99519.03;7385720;19;20085;-58
2022/11/11 06:02:12;;;;;;;490.60;442.10;;;;;;;4.99;100.00;99514.78;7389668;19;20014;-52
2022/11/11 06:05:04;;;;;;;473.45;426.25;;;;;;;5.45;100.00;99513.94;7387788;19;20010;-49
2022/11/11 06:07:59;;;;;;;468.15;420.30;;;;;;;4.76;100.00;99516.88;7385238;19;20030;-58
2022/11/11 06:10:55;;;;;;;476.50;428.42;;;;;;;4.93;100.00;99516.59;7385408;19;20015;-52
2022/11/11 06:13:47;;;;;;;466.45;418.40;;;;;;;4.93;100.00;99514.88;7387717;19;20014;-50
2022/11/11 06:16:39;;;;;;;484.38;434.40;;;;;;;4.78;100.00;99520.34;7383648;19;20018;-49
2022/11/11 06:19:32;;;;;;;467.60;419.13;;;;;;;4.76;100.00;99513.44;7388765;19;20542;-50
2022/11/11 06:22:55;;;;;;;484.17;435.80;;;;;;;4.77;100.00;99520.38;7389382;19;20015;-48
2022/11/11 06:28:49;;;;;;;456.90;410.02;;;;;;;4.67;100.00;99534.41;7387983;19;20010;-51
2022/11/11 06:31:42;;;;;;;477.92;429.42;;;;;;;4.72;100.00;99543.03;7384641;19;20014;-52
2022/11/11 06:34:34;;;;;;;451.38;405.38;;;;;;;4.74;100.00;99549.06;7385011;19;20048;-58
2022/11/11 06:37:26;;;;;;;451.05;405.25;;;;;;;5.18;100.00;99545.75;7388925;19;20051;-50
2022/11/11 06:40:23;;;;;;;429.08;383.92;;;;;;;5.18;100.00;99557.03;7389681;19;20003;-49
2022/11/11 06:43:15;;;;;;;454.63;407.85;;;;;;;4.87;100.00;99556.66;7379724;19;20150;-52
2022/11/11 06:46:11;;;;;;;449.30;404.55;;;;;;;5.26;100.00;99560.34;7389637;19;20022;-49
2022/11/11 06:49:04;;;;;;;496.85;449.75;;;;;;;4.96;100.00;99542.63;7387832;19;20018;-54
2022/11/11 06:51:56;;;;;;;507.48;458.60;;;;;;;4.97;100.00;99554.75;7383049;19;20015;-51
2022/11/11 06:54:48;;;;;;;485.30;438.23;;;;;;;5.13;100.00;99544.94;7384297;19;20022;-49
2022/11/11 06:57:42;;;;;;;488.88;441.75;;;;;;;5.25;100.00;99544.72;7383028;19;20027;-55
2022/11/11 07:00:36;;;;;;;496.90;448.77;;;;;;;5.19;100.00;99542.25;7381702;19;20018;-51
2022/11/11 07:03:31;;;;;;;508.85;460.27;;;;;;;5.25;100.00;99545.59;7382336;19;20014;-52
2022/11/11 07:06:24;;;;;;;480.60;434.27;;;;;;;5.14;100.00;99547.53;7384154;19;20015;-50
2022/11/11 07:09:16;;;;;;;494.58;447.75;;;;;;;5.37;100.00;99536.72;7387190;19;20454;-49
2022/11/11 07:12:08;;;;;;;486.50;437.80;;;;;;;5.36;100.00;99528.00;7380183;19;20017;-49
2022/11/11 07:15:02;;;;;;;487.85;440.38;;;;;;;5.31;100.00;99527.25;7384638;19;20037;-52
2022/11/11 07:17:53;;;;;;;481.80;434.63;;;;;;;5.70;100.00;99512.56;7385399;19;20048;-53
2022/11/11 07:20:49;;;;;;;496.52;447.23;;;;;;;5.66;100.00;99508.31;7381480;19;20623;-51
2022/11/11 07:23:41;;;;;;;;;;;;;;;5.71;100.00;99504.72;7386827;19;20011;-51
2022/11/11 07:26:33;;;;;;;489.73;442.55;;;;;;;5.93;100.00;99498.16;7384933;19;19907;-52
2022/11/11 07:29:25;;;;;;;504.25;455.08;;;;;;;5.81;100.00;99495.78;7382806;19;20015;-52
2022/11/11 07:32:18;;;;;;;488.20;441.20;;;;;;;6.10;100.00;99490.81;7386054;19;20039;-52
2022/11/11 07:35:13;;;;;;;488.52;441.70;;;;;;;5.97;100.00;99491.97;7386594;19;20339;-52
2022/11/11 07:38:09;;;;;;;469.90;424.25;;;;;;;6.40;100.00;99487.53;7382936;19;20021;-54
2022/11/11 07:41:03;;;;;;;483.85;436.77;;;;;;;6.13;100.00;99490.75;7382981;19;20018;-52
2022/11/11 07:43:56;;;;;;;472.85;427.17;;;;;;;6.23;100.00;99483.59;7385757;19;20411;-51
2022/11/11 07:46:49;;;;;;;483.75;437.63;;;;;;;6.27;100.00;99480.88;7384098;19;20007;-52
2022/11/11 07:49:41;;;;;;;476.58;429.55;;;;;;;6.17;100.00;99484.56;7371360;19;20011;-52
2022/11/11 07:52:35;;;;;;;485.08;438.85;;;;;;;6.25;100.00;99490.50;7384251;19;20102;-58
2022/11/11 07:55:31;;;;;;;501.90;454.10;;;;;;;6.18;100.00;99496.72;7385511;19;20014;-51
2022/11/11 07:58:23;;;;;;;481.13;434.10;;;;;;;6.46;100.00;99496.97;7384586;19;20036;-52
2022/11/11 08:01:15;;;;;;;479.98;432.70;;;;;;;6.42;100.00;99485.75;7380960;19;20010;-51
2022/11/11 08:04:07;;;;;;;473.67;427.25;;;;;;;6.68;100.00;99488.59;7386844;19;20015;-51
2022/11/11 08:06:59;;;;;;;477.23;430.10;;;;;;;6.52;100.00;99489.88;7383423;19;20011;-53
2022/11/11 08:09:51;;;;;;;506.67;457.70;;;;;;;6.70;100.00;99494.63;7378908;19;20014;-53
2022/11/11 08:15:51;;;;;;;480.73;433.20;;;;;;;6.81;100.00;99500.47;7379238;19;20082;-53
2022/11/11 08:18:43;;;;;;;477.80;430.55;;;;;;;7.05;100.00;99509.44;7381113;19;20014;-49
2022/11/11 08:21:35;;;;;;;482.92;435.42;;;;;;;6.99;100.00;99505.22;7381067;19;20086;-59
2022/11/11 08:24:26;;;;;;;494.42;446.98;;;;;;;6.93;100.00;99510.63;7382967;19;20354;-51
2022/11/11 08:27:19;;;;;;;481.45;434.13;;;;;;;6.90;100.00;99505.47;7384885;19;20007;-48
2022/11/11 08:30:15;;;;;;;502.58;453.77;;;;;;;7.10;100.00;99503.19;7380873;19;20011;-49
2022/11/11 08:33:10;;;;;;;472.48;426.08;;;;;;;7.22;100.00;99504.66;7386695;19;20477;-51
2022/11/11 08:36:06;;;;;;;486.90;438.38;;;;;;;7.16;100.00;99505.69;7386542;19;20066;-53
2022/11/11 08:38:59;;;;;;;490.25;440.58;;;;;;;7.18;100.00;99492.56;7388571;19;20325;-53
2022/11/11 08:41:51;;;;;;;485.35;437.10;;;;;;;7.54;100.00;99488.94;7383677;19;20021;-54
2022/11/11 08:44:43;;;;;;;464.17;416.83;;;;;;;7.57;100.00;99489.72;7384492;19;20033;-53
2022/11/11 08:47:38;;;;;;;483.45;435.55;;;;;;;7.58;100.00;99503.66;7384797;19;20014;-53
2022/11/11 08:50:30;;;;;;;484.40;435.75;;;;;;;7.73;100.00;99500.63;7379860;19;20016;-54
2022/11/11 08:53:22;;;;;;;480.02;433.52;;;;;;;7.72;100.00;99499.75;7384859;19;20010;-54
2022/11/11 08:56:14;;;;;;;481.02;434.42;;;;;;;7.84;100.00;99511.66;7386876;19;20378;-50
2022/11/11 08:59:07;;;;;;;489.65;440.70;;;;;;;7.85;100.00;99515.97;7381932;19;20470;-53
2022/11/11 09:01:59;;;;;;;486.42;438.10;;;;;;;7.75;100.00;99523.25;7386553;19;20014;-53
2022/11/11 09:04:53;;;;;;;475.05;426.48;;;;;;;8.29;100.00;99528.66;7387232;19;20011;-53
2022/11/11 09:07:45;;;;;;;494.67;444.00;;;;;;;8.08;100.00;99511.81;7381675;19;20011;-54
2022/11/11 09:10:38;;;;;;;468.52;421.30;;;;;;;8.05;100.00;99504.06;7385421;19;20432;-53
2022/11/11 09:13:30;;;;;;;479.30;432.38;;;;;;;8.19;100.00;99512.38;7387106;19;20022;-55
2022/11/11 09:16:22;;;;;;;492.55;445.13;;;;;;;8.24;100.00;99520.94;7385332;19;20021;-53
2022/11/11 09:19:14;;;;;;;479.70;431.90;;;;;;;8.10;100.00;99523.09;7385425;19;20010;-55
2022/11/11 09:22:08;;;;;;;483.92;436.67;;;;;;;8.63;100.00;99525.88;7385901;19;20370;-56
2022/11/11 09:25:00;;;;;;;485.58;438.55;;;;;;;8.42;100.00;99523.91;7385076;19;20022;-52
2022/11/11 09:28:01;;;;;;;469.08;421.23;;;;;;;8.33;100.00;99531.16;7382273;19;20014;-53
2022/11/11 09:30:53;;;;;;;469.45;421.77;;;;;;;8.27;100.00;99525.22;7386162;19;20463;-54
2022/11/11 09:33:48;;;;;;;467.85;420.08;;;;;;;8.28;100.00;99527.78;7385515;19;20014;-54
2022/11/11 09:36:44;;;;;;;488.90;440.08;;;;;;;8.43;100.00;99529.13;7381914;19;20689;-54
2022/11/11 09:39:39;;;;;;;475.77;428.00;;;;;;;8.72;100.00;99525.56;7382229;19;20036;-57
2022/11/11 09:42:43;;;;;;;470.35;421.48;;;;;;;8.39;100.00;99538.81;7385443;19;20025;-54
2022/11/11 09:45:49;;;;;;;476.95;427.90;;;;;;;8.61;100.00;99536.41;7385776;19;20014;-54
2022/11/11 09:48:53;;;;;;;461.40;414.80;;;;;;;8.58;100.00;99531.25;7385181;19;20336;-53
2022/11/11 09:51:53;;;;;;;463.27;416.13;;;;;;;8.97;100.00;99529.13;7384968;19;20011;-53
2022/11/11 09:54:55;;;;;;;465.85;417.92;;;;;;;9.18;100.00;99512.63;7380731;19;20086;-52
2022/11/11 09:57:57;;;;;;;459.00;412.55;;;;;;;8.96;100.00;99517.75;7381384;19;20022;-50
2022/11/11 10:00:54;;;;;;;439.00;394.02;;;;;;;9.13;100.00;99504.06;7386047;19;20473;-49
2022/11/11 10:03:52;;;;;;;460.55;414.23;;;;;;;9.29;100.00;99516.63;7386272;19;20087;-48
2022/11/11 10:06:46;;;;;;;476.63;429.05;;;;;;;9.34;100.00;99508.59;7385235;19;20047;-48
2022/11/11 10:09:48;;;;;;;488.98;441.75;;;;;;;9.24;100.00;99497.56;7381483;19;20342;-48
2022/11/11 10:12:48;;;;;;;479.73;432.35;;;;;;;9.23;100.00;99505.50;7388188;19;20014;-49
2022/11/11 10:15:46;;;;;;;475.70;429.13;;;;;;;9.50;100.00;99501.91;7391061;19;20385;-50
2022/11/11 10:18:58;;;;;;;472.77;426.27;;;;;;;9.55;100.00;99495.56;7391419;19;20011;-50
2022/11/11 10:21:56;;;;;;;467.35;420.35;;;;;;;9.56;100.00;99485.94;7393030;19;20014;-49
2022/11/11 10:24:55;;;;;;;488.33;440.55;;;;;;;9.94;100.00;99491.53;7392357;19;20021;-48
2022/11/11 10:27:52;;;;;;;500.85;451.90;;;;;;;9.99;100.00;99488.72;7388103;19;20327;-49
2022/11/11 10:30:44;;;;;;;481.55;434.73;;;;;;;10.04;100.00;99486.78;7392828;19;20014;-49
2022/11/11 10:33:52;;;;;;;477.23;429.38;;;;;;;10.09;100.00;99487.47;7390682;19;20007;-48
2022/11/11 10:36:50;;;;;;;478.40;432.00;;;;;;;9.86;100.00;99482.22;7391941;19;20010;-48
2022/11/11 10:39:56;;;;;;;494.63;445.63;;;;;;;10.04;100.00;99476.28;7388540;19;20021;-49
2022/11/11 10:42:50;;;;;;;496.13;448.27;;;;;;;10.07;100.00;99470.91;7387838;19;20024;-49
2022/11/11 10:45:51;;;;;;;465.20;417.55;;;;;;;9.92;100.00;99466.22;7390999;19;20011;-49
2022/11/11 10:48:56;;;;;;;478.25;429.85;;;;;;;10.05;100.00;99455.19;7392510;19;20503;-49
2022/11/11 10:51:55;;;;;;;487.10;438.90;;;;;;;10.07;100.00;99455.13;7389874;19;20010;-49
2022/11/11 10:54:55;;;;;;;492.15;445.48;;;;;;;10.01;100.00;99448.34;7385191;19;20011;-58
2022/11/11 10:57:57;;;;;;;499.70;450.70;;;;;;;10.09;100.00;99454.16;7383432;19;20014;-54
2022/11/11 11:00:51;;;;;;;505.65;457.52;;;;;;;9.80;100.00;99466.66;7387500;19;20007;-56
2022/11/11 11:03:48;;;;;;;486.40;440.23;;;;;;;10.31;100.00;99469.94;7392005;19;20074;-49
2022/11/11 11:06:43;;;;;;;495.65;447.98;;;;;;;10.01;100.00;99468.50;7387962;19;20015;-49
2022/11/11 11:09:42;;;;;;;492.98;444.88;;;;;;;10.05;100.00;99467.47;7380559;19;20033;-51
2022/11/11 11:12:44;;;;;;;488.00;441.98;;;;;;;9.86;100.00;99464.69;7385986;19;20042;-60
2022/11/11 11:15:48;;;;;;;475.85;429.08;;;;;;;10.10;100.00;99463.75;7390425;19;20010;-52
2022/11/11 11:18:43;;;;;;;470.15;422.85;;;;;;;10.10;100.00;99461.13;7386705;19;20458;-50
2022/11/11 11:21:54;;;;;;;482.00;435.98;;;;;;;10.20;100.00;99469.50;7388685;19;20011;-48
2022/11/11 11:24:47;;;;;;;481.63;434.70;;;;;;;9.92;100.00;99464.44;7388013;19;20018;-48
2022/11/11 11:27:39;;;;;;;506.67;457.45;;;;;;;10.37;100.00;99467.09;7385757;19;20018;-49
2022/11/11 11:30:32;;;;;;;486.80;441.67;;;;;;;10.30;100.00;99452.47;7388611;19;20354;-48
2022/11/11 11:33:27;;;;;;;489.33;443.50;;;;;;;10.07;100.00;99455.97;7388062;19;20470;-49
2022/11/11 11:36:23;;;;;;;491.73;444.52;;;;;;;10.29;100.00;99450.75;7383825;19;20018;-48
2022/11/11 11:39:15;;;;;;;471.63;426.38;;;;;;;10.03;100.00;99438.63;7390725;19;20011;-48
2022/11/11 11:42:07;;;;;;;495.05;449.23;;;;;;;10.26;100.00;99440.34;7388594;19;20011;-49
2022/11/11 11:44:59;;;;;;;498.73;451.35;;;;;;;9.95;100.00;99438.06;7388314;19;20533;-50
2022/11/11 11:48:04;;;;;;;500.38;453.40;;;;;;;10.07;100.00;99444.63;7388997;19;20006;-49
2022/11/11 11:51:01;;;;;;;516.65;469.13;;;;;;;9.77;100.00;99443.13;7390137;19;20014;-49
2022/11/11 11:54:09;;;;;;;512.90;465.58;;;;;;;10.33;100.00;99449.72;7387590;19;20362;-48
2022/11/11 11:57:07;;;;;;;512.85;465.95;;;;;;;10.06;100.00;99445.50;7388962;19;20046;-49
2022/11/11 12:00:08;;;;;;;514.42;466.98;;;;;;;9.97;100.00;99451.13;7389752;19;20014;-48
2022/11/11 12:03:32;;;;;;;506.42;458.63;;;;;;;9.85;100.00;99448.97;7383826;19;20014;-48
2022/11/11 12:06:35;;;;;;;511.75;465.70;;;;;;;10.20;100.00;99449.34;7386976;19;20039;-51
2022/11/11 12:09:40;;;;;;;484.35;437.63;;;;;;;9.95;100.00;99445.06;7383855;19;20020;-49
2022/11/11 12:12:42;;;;;;;505.58;457.05;;;;;;;9.99;100.00;99444.03;7382969;19;20010;-53
2022/11/11 12:15:42;;;;;;;522.53;475.23;;;;;;;9.76;100.00;99439.66;7387897;19;20014;-48
2022/11/11 12:18:56;;;;;;;507.38;461.63;;;;;;;9.84;100.00;99442.00;7389743;19;20015;-49
2022/11/11 12:22:10;;;;;;;522.47;474.48;;;;;;;9.83;100.00;99443.78;7390168;19;20043;-48
2022/11/11 12:25:17;;;;;;;498.15;450.83;;;;;;;9.74;100.00;99443.28;7389550;19;20015;-48
2022/11/11 12:28:20;;;;;;;539.88;488.13;;;;;;;9.84;100.00;99431.47;7388608;19;20473;-51
2022/11/11 12:31:31;;;;;;;564.45;508.45;;;;;;;9.76;100.00;99420.41;7389562;19;20010;-48
2022/11/11 12:34:39;;;;;;;559.55;503.63;;;;;;;10.07;100.00;99426.22;7386753;19;20022;-50
2022/11/11 12:37:45;;;;;;;574.63;518.28;;;;;;;9.68;100.00;99435.59;7388051;19;20010;-51
2022/11/11 12:40:47;;;;;;;590.38;532.38;;;;;;;9.88;100.00;99419.94;7387679;19;20033;-48
2022/11/11 12:43:48;;;;;;;580.80;525.10;;;;;;;10.03;100.00;99422.84;7381368;19;20070;-50
2022/11/11 12:46:48;;;;;;;564.08;508.63;;;;;;;10.10;100.00;99426.06;7386686;19;20010;-58
2022/11/11 12:49:55;;;;;;;566.22;510.98;;;;;;;9.61;100.00;99419.22;7387838;19;20002;-52
2022/11/11 12:53:06;;;;;;;568.55;512.47;;;;;;;9.80;100.00;99419.38;7385366;19;20343;-49
2022/11/11 12:56:06;;;;;;;575.95;516.55;;;;;;;9.63;100.00;99417.38;7388506;19;20019;-49
2022/11/11 12:59:05;;;;;;;578.22;519.42;;;;;;;9.84;100.00;99415.72;7387471;19;20006;-49
2022/11/11 13:02:08;;;;;;;589.40;528.78;;;;;;;9.78;100.00;99410.72;7381671;19;20369;-48
2022/11/11 13:05:10;;;;;;;607.13;545.80;;;;;;;10.00;100.00;99398.47;7375392;19;20457;-50
2022/11/11 13:08:27;;;;;;;598.53;538.83;;;;;;;10.05;100.00;99404.38;7376891;19;20022;-58
2022/11/11 13:11:27;;;;;;;573.28;516.13;;;;;;;9.68;100.00;99398.84;7373505;19;20022;-60
2022/11/11 13:14:41;;;;;;;597.25;537.85;;;;;;;9.91;100.00;99398.81;7381824;19;20011;-48
2022/11/11 13:17:34;;;;;;;577.40;519.65;;;;;;;9.50;100.00;99399.47;7383565;19;20035;-54
2022/11/11 13:20:45;;;;;;;569.72;512.60;;;;;;;9.56;100.00;99399.28;7384563;19;20128;-48
2022/11/11 13:23:42;;;;;;;568.42;511.23;;;;;;;9.68;100.00;99394.44;7380330;19;20027;-53
2022/11/11 13:26:41;;;;;;;574.15;516.25;;;;;;;9.64;100.00;99394.63;7379987;19;20010;-49
2022/11/11 13:30:03;;;;;;;574.90;516.50;;;;;;;9.44;100.00;99412.84;7375226;19;20545;-51
2022/11/11 13:32:59;;;;;;;;;;;;;;;9.58;100.00;99403.53;7380497;19;20559;-48
2022/11/11 13:35:56;;;;;;;578.85;521.38;;;;;;;9.29;100.00;99403.75;7379546;19;19929;-60
2022/11/11 13:38:56;;;;;;;579.45;520.90;;;;;;;9.35;100.00;99402.66;7375278;19;20066;-50
2022/11/11 13:41:58;;;;;;;578.67;520.13;;;;;;;9.34;100.00;99395.72;7374206;19;20082;-48
2022/11/11 13:44:58;;;;;;;581.70;521.45;;;;;;;9.67;100.00;99399.75;7384401;19;20027;-48
2022/11/11 13:47:53;;;;;;;584.85;524.22;;;;;;;9.36;100.00;99393.88;7383971;19;20014;-52
2022/11/11 13:50:46;;;;;;;553.70;497.08;;;;;;;9.41;100.00;99400.66;7391599;19;20018;-48
2022/11/11 13:53:43;;;;;;;568.92;511.25;;;;;;;9.30;100.00;99405.47;7389268;19;20027;-54
2022/11/11 13:56:45;;;;;;;547.22;492.35;;;;;;;9.29;100.00;99403.75;7392150;19;20510;-50
2022/11/11 13:59:41;;;;;;;582.05;523.83;;;;;;;9.42;100.00;99404.16;7385296;19;20014;-48
2022/11/11 14:02:37;;;;;;;579.80;521.08;;;;;;;9.20;100.00;99396.22;7390646;19;20010;-60
2022/11/11 14:05:32;;;;;;;579.35;521.03;;;;;;;9.04;100.00;99397.66;7392352;19;20010;-50
2022/11/11 14:08:57;;;;;;;570.42;511.15;;;;;;;9.21;100.00;99397.06;7391552;19;20014;-50
2022/11/11 14:11:52;;;;;;;560.58;503.30;;;;;;;9.14;100.00;99403.44;7391062;19;20018;-49
2022/11/11 14:15:06;;;;;;;534.58;480.23;;;;;;;9.14;100.00;99406.06;7390489;19;20018;-49
2022/11/11 14:18:00;;;;;;;538.03;483.02;;;;;;;9.07;100.00;99397.56;7393827;19;20026;-48
2022/11/11 14:20:54;;;;;;;547.90;491.25;;;;;;;9.03;100.00;99403.81;7383260;19;20333;-53
2022/11/11 14:23:48;;;;;;;540.42;483.63;;;;;;;8.81;100.00;99417.72;7381141;19;20023;-48
2022/11/11 14:26:40;;;;;;;568.97;510.63;;;;;;;8.97;100.00;99414.53;7374662;19;20014;-52
2022/11/11 14:29:38;;;;;;;598.45;536.38;;;;;;;8.94;100.00;99419.91;7376078;19;20078;-50
2022/11/11 14:32:45;;;;;;;569.10;510.48;;;;;;;8.90;100.00;99414.81;7384309;19;20019;-56
2022/11/11 14:35:45;;;;;;;550.75;494.05;;;;;;;8.58;100.00;99409.78;7389801;19;20276;-49
2022/11/11 14:38:52;;;;;;;555.30;497.20;;;;;;;8.96;100.00;99411.97;7387771;19;20010;-50
2022/11/11 14:41:55;;;;;;;566.83;507.48;;;;;;;8.77;100.00;99403.88;7384672;19;20015;-48
2022/11/11 14:44:50;;;;;;;567.58;510.17;;;;;;;8.80;100.00;99411.63;7381364;19;20018;-52
2022/11/11 14:47:43;;;;;;;576.78;516.78;;;;;;;8.80;100.00;99409.00;7377306;19;20018;-49